<?xml version="1.0" encoding="UTF-8" standalone="no" ?>
<gpx xmlns="http://www.topografix.com/GPX/1/1" xmlns:xsi="http://www.w3.org/2001/XMLSchema-instance" xsi:schemaLocation="http://www.topografix.com/GPX/1/1 http://www.topografix.com/GPX/1/1/gpx.xsd" version="1.1" creator="VisuGPX - https://www.visugpx.com">
  <metadata>
    <name>Gif sur Yvette </name>
  </metadata>
  <wpt lat="48.70193" lon="2.10469">
    <ele>113</ele>
    <name><![CDATA[]]></name>
    <type><![CDATA[GENERIC]]></type>
  </wpt>
  <wpt lat="48.70233" lon="2.10587">
    <ele>114</ele>
    <name><![CDATA[]]></name>
    <type><![CDATA[GENERIC]]></type>
  </wpt>
  <trk>
    <name><![CDATA[Randonnée du 11/08/2023 à 09:16]]></name>
    <trkseg>
      <trkpt lat="48.70233" lon="2.10587">
        <ele>114</ele>
        <time>2023-08-11T07:16:36.000Z</time>
      </trkpt>
      <trkpt lat="48.70246" lon="2.10617">
        <ele>113</ele>
        <time>2023-08-11T07:17:32.000Z</time>
      </trkpt>
      <trkpt lat="48.70253" lon="2.10655">
        <ele>115</ele>
        <time>2023-08-11T07:18:13.000Z</time>
      </trkpt>
      <trkpt lat="48.70268" lon="2.10687">
        <ele>114</ele>
        <time>2023-08-11T07:18:35.000Z</time>
      </trkpt>
      <trkpt lat="48.70256" lon="2.10725">
        <ele>114</ele>
        <time>2023-08-11T07:19:00.000Z</time>
      </trkpt>
      <trkpt lat="48.70257" lon="2.10759">
        <ele>114</ele>
        <time>2023-08-11T07:19:20.000Z</time>
      </trkpt>
      <trkpt lat="48.70249" lon="2.10791">
        <ele>115</ele>
        <time>2023-08-11T07:19:40.000Z</time>
      </trkpt>
      <trkpt lat="48.70242" lon="2.10828">
        <ele>114</ele>
        <time>2023-08-11T07:20:03.000Z</time>
      </trkpt>
      <trkpt lat="48.70232" lon="2.10858">
        <ele>114</ele>
        <time>2023-08-11T07:20:25.000Z</time>
      </trkpt>
      <trkpt lat="48.70222" lon="2.10893">
        <ele>113</ele>
        <time>2023-08-11T07:20:51.000Z</time>
      </trkpt>
      <trkpt lat="48.70212" lon="2.10927">
        <ele>113</ele>
        <time>2023-08-11T07:21:15.000Z</time>
      </trkpt>
      <trkpt lat="48.70202" lon="2.1096">
        <ele>113</ele>
        <time>2023-08-11T07:21:37.000Z</time>
      </trkpt>
      <trkpt lat="48.70197" lon="2.10999">
        <ele>113</ele>
        <time>2023-08-11T07:22:24.000Z</time>
      </trkpt>
      <trkpt lat="48.70206" lon="2.11033">
        <ele>113</ele>
        <time>2023-08-11T07:23:14.000Z</time>
      </trkpt>
      <trkpt lat="48.70222" lon="2.11067">
        <ele>113</ele>
        <time>2023-08-11T07:23:42.000Z</time>
      </trkpt>
      <trkpt lat="48.70236" lon="2.11096">
        <ele>113</ele>
        <time>2023-08-11T07:24:05.000Z</time>
      </trkpt>
      <trkpt lat="48.70234" lon="2.11133">
        <ele>113</ele>
        <time>2023-08-11T07:24:30.000Z</time>
      </trkpt>
      <trkpt lat="48.70215" lon="2.11152">
        <ele>113</ele>
        <time>2023-08-11T07:24:52.000Z</time>
      </trkpt>
      <trkpt lat="48.70193" lon="2.11171">
        <ele>113</ele>
        <time>2023-08-11T07:25:13.000Z</time>
      </trkpt>
      <trkpt lat="48.70167" lon="2.11174">
        <ele>111</ele>
        <time>2023-08-11T07:25:33.000Z</time>
      </trkpt>
      <trkpt lat="48.70143" lon="2.11165">
        <ele>115</ele>
        <time>2023-08-11T07:26:41.000Z</time>
      </trkpt>
      <trkpt lat="48.70117" lon="2.11169">
        <ele>115</ele>
        <time>2023-08-11T07:26:55.000Z</time>
      </trkpt>
      <trkpt lat="48.70141" lon="2.11173">
        <ele>115</ele>
        <time>2023-08-11T07:27:50.000Z</time>
      </trkpt>
      <trkpt lat="48.70165" lon="2.11171">
        <ele>115</ele>
        <time>2023-08-11T07:28:16.000Z</time>
      </trkpt>
      <trkpt lat="48.70189" lon="2.11172">
        <ele>115</ele>
        <time>2023-08-11T07:28:38.000Z</time>
      </trkpt>
      <trkpt lat="48.70211" lon="2.11161">
        <ele>115</ele>
        <time>2023-08-11T07:29:01.000Z</time>
      </trkpt>
      <trkpt lat="48.70233" lon="2.11155">
        <ele>115</ele>
        <time>2023-08-11T07:29:21.000Z</time>
      </trkpt>
      <trkpt lat="48.70255" lon="2.11138">
        <ele>113</ele>
        <time>2023-08-11T07:30:06.000Z</time>
      </trkpt>
      <trkpt lat="48.70279" lon="2.11132">
        <ele>113</ele>
        <time>2023-08-11T07:30:28.000Z</time>
      </trkpt>
      <trkpt lat="48.70285" lon="2.11166">
        <ele>113</ele>
        <time>2023-08-11T07:30:50.000Z</time>
      </trkpt>
      <trkpt lat="48.70282" lon="2.11202">
        <ele>114</ele>
        <time>2023-08-11T07:31:22.000Z</time>
      </trkpt>
      <trkpt lat="48.70278" lon="2.11237">
        <ele>115</ele>
        <time>2023-08-11T07:31:46.000Z</time>
      </trkpt>
      <trkpt lat="48.70266" lon="2.11269">
        <ele>113</ele>
        <time>2023-08-11T07:32:07.000Z</time>
      </trkpt>
      <trkpt lat="48.7025" lon="2.11296">
        <ele>113</ele>
        <time>2023-08-11T07:32:27.000Z</time>
      </trkpt>
      <trkpt lat="48.70246" lon="2.11331">
        <ele>114</ele>
        <time>2023-08-11T07:32:50.000Z</time>
      </trkpt>
      <trkpt lat="48.70239" lon="2.11364">
        <ele>113</ele>
        <time>2023-08-11T07:33:15.000Z</time>
      </trkpt>
      <trkpt lat="48.70236" lon="2.11399">
        <ele>113</ele>
        <time>2023-08-11T07:33:33.000Z</time>
      </trkpt>
      <trkpt lat="48.7023" lon="2.11438">
        <ele>113</ele>
        <time>2023-08-11T07:34:00.000Z</time>
      </trkpt>
      <trkpt lat="48.70216" lon="2.11468">
        <ele>113</ele>
        <time>2023-08-11T07:34:22.000Z</time>
      </trkpt>
      <trkpt lat="48.70194" lon="2.11466">
        <ele>113</ele>
        <time>2023-08-11T07:34:54.000Z</time>
      </trkpt>
      <trkpt lat="48.7017" lon="2.11461">
        <ele>113</ele>
        <time>2023-08-11T07:35:17.000Z</time>
      </trkpt>
      <trkpt lat="48.70148" lon="2.11448">
        <ele>113</ele>
        <time>2023-08-11T07:35:51.000Z</time>
      </trkpt>
      <trkpt lat="48.70125" lon="2.11463">
        <ele>113</ele>
        <time>2023-08-11T07:36:18.000Z</time>
      </trkpt>
      <trkpt lat="48.70109" lon="2.11492">
        <ele>113</ele>
        <time>2023-08-11T07:36:43.000Z</time>
      </trkpt>
      <trkpt lat="48.70105" lon="2.11526">
        <ele>113</ele>
        <time>2023-08-11T07:37:08.000Z</time>
      </trkpt>
      <trkpt lat="48.70101" lon="2.11561">
        <ele>113</ele>
        <time>2023-08-11T07:37:35.000Z</time>
      </trkpt>
      <trkpt lat="48.70094" lon="2.11597">
        <ele>113</ele>
        <time>2023-08-11T07:37:59.000Z</time>
      </trkpt>
      <trkpt lat="48.70086" lon="2.11632">
        <ele>113</ele>
        <time>2023-08-11T07:38:21.000Z</time>
      </trkpt>
      <trkpt lat="48.7008" lon="2.11668">
        <ele>113</ele>
        <time>2023-08-11T07:38:40.000Z</time>
      </trkpt>
      <trkpt lat="48.70072" lon="2.11701">
        <ele>113</ele>
        <time>2023-08-11T07:39:02.000Z</time>
      </trkpt>
      <trkpt lat="48.70069" lon="2.11738">
        <ele>113</ele>
        <time>2023-08-11T07:39:28.000Z</time>
      </trkpt>
      <trkpt lat="48.70062" lon="2.11771">
        <ele>113</ele>
        <time>2023-08-11T07:39:53.000Z</time>
      </trkpt>
      <trkpt lat="48.70056" lon="2.1181">
        <ele>113</ele>
        <time>2023-08-11T07:40:16.000Z</time>
      </trkpt>
      <trkpt lat="48.70065" lon="2.11845">
        <ele>113</ele>
        <time>2023-08-11T07:41:24.000Z</time>
      </trkpt>
      <trkpt lat="48.70068" lon="2.1188">
        <ele>113</ele>
        <time>2023-08-11T07:41:46.000Z</time>
      </trkpt>
      <trkpt lat="48.70075" lon="2.11914">
        <ele>113</ele>
        <time>2023-08-11T07:42:09.000Z</time>
      </trkpt>
      <trkpt lat="48.70085" lon="2.11945">
        <ele>113</ele>
        <time>2023-08-11T07:42:31.000Z</time>
      </trkpt>
      <trkpt lat="48.70092" lon="2.1198">
        <ele>111</ele>
        <time>2023-08-11T07:42:53.000Z</time>
      </trkpt>
      <trkpt lat="48.70098" lon="2.12017">
        <ele>111</ele>
        <time>2023-08-11T07:43:15.000Z</time>
      </trkpt>
      <trkpt lat="48.701" lon="2.12051">
        <ele>111</ele>
        <time>2023-08-11T07:43:34.000Z</time>
      </trkpt>
      <trkpt lat="48.70109" lon="2.12083">
        <ele>111</ele>
        <time>2023-08-11T07:43:57.000Z</time>
      </trkpt>
      <trkpt lat="48.70107" lon="2.12117">
        <ele>111</ele>
        <time>2023-08-11T07:44:18.000Z</time>
      </trkpt>
      <trkpt lat="48.70104" lon="2.12152">
        <ele>111</ele>
        <time>2023-08-11T07:44:44.000Z</time>
      </trkpt>
      <trkpt lat="48.70098" lon="2.12189">
        <ele>111</ele>
        <time>2023-08-11T07:45:08.000Z</time>
      </trkpt>
      <trkpt lat="48.7009" lon="2.12225">
        <ele>111</ele>
        <time>2023-08-11T07:45:30.000Z</time>
      </trkpt>
      <trkpt lat="48.70082" lon="2.12259">
        <ele>111</ele>
        <time>2023-08-11T07:45:56.000Z</time>
      </trkpt>
      <trkpt lat="48.7007" lon="2.12291">
        <ele>111</ele>
        <time>2023-08-11T07:46:21.000Z</time>
      </trkpt>
      <trkpt lat="48.70057" lon="2.12321">
        <ele>110</ele>
        <time>2023-08-11T07:46:40.000Z</time>
      </trkpt>
      <trkpt lat="48.70046" lon="2.12355">
        <ele>110</ele>
        <time>2023-08-11T07:47:02.000Z</time>
      </trkpt>
      <trkpt lat="48.70035" lon="2.12385">
        <ele>110</ele>
        <time>2023-08-11T07:47:50.000Z</time>
      </trkpt>
      <trkpt lat="48.7003" lon="2.12424">
        <ele>110</ele>
        <time>2023-08-11T07:48:03.000Z</time>
      </trkpt>
      <trkpt lat="48.70049" lon="2.12447">
        <ele>110</ele>
        <time>2023-08-11T07:48:26.000Z</time>
      </trkpt>
      <trkpt lat="48.70073" lon="2.12452">
        <ele>110</ele>
        <time>2023-08-11T07:48:47.000Z</time>
      </trkpt>
      <trkpt lat="48.70097" lon="2.12466">
        <ele>110</ele>
        <time>2023-08-11T07:49:09.000Z</time>
      </trkpt>
      <trkpt lat="48.7012" lon="2.12468">
        <ele>110</ele>
        <time>2023-08-11T07:49:32.000Z</time>
      </trkpt>
      <trkpt lat="48.70132" lon="2.12499">
        <ele>110</ele>
        <time>2023-08-11T07:49:58.000Z</time>
      </trkpt>
      <trkpt lat="48.70127" lon="2.12534">
        <ele>110</ele>
        <time>2023-08-11T07:50:20.000Z</time>
      </trkpt>
      <trkpt lat="48.70117" lon="2.12566">
        <ele>111</ele>
        <time>2023-08-11T07:51:24.000Z</time>
      </trkpt>
      <trkpt lat="48.701" lon="2.12589">
        <ele>110</ele>
        <time>2023-08-11T07:51:38.000Z</time>
      </trkpt>
      <trkpt lat="48.70079" lon="2.12606">
        <ele>110</ele>
        <time>2023-08-11T07:52:05.000Z</time>
      </trkpt>
      <trkpt lat="48.70062" lon="2.12631">
        <ele>110</ele>
        <time>2023-08-11T07:52:30.000Z</time>
      </trkpt>
      <trkpt lat="48.70043" lon="2.12655">
        <ele>110</ele>
        <time>2023-08-11T07:52:55.000Z</time>
      </trkpt>
      <trkpt lat="48.70024" lon="2.12677">
        <ele>110</ele>
        <time>2023-08-11T07:53:15.000Z</time>
      </trkpt>
      <trkpt lat="48.70014" lon="2.1271">
        <ele>110</ele>
        <time>2023-08-11T07:53:42.000Z</time>
      </trkpt>
      <trkpt lat="48.69996" lon="2.12732">
        <ele>111</ele>
        <time>2023-08-11T07:53:56.000Z</time>
      </trkpt>
      <trkpt lat="48.69987" lon="2.12764">
        <ele>111</ele>
        <time>2023-08-11T07:54:19.000Z</time>
      </trkpt>
      <trkpt lat="48.69971" lon="2.12792">
        <ele>111</ele>
        <time>2023-08-11T07:54:40.000Z</time>
      </trkpt>
      <trkpt lat="48.69955" lon="2.12818">
        <ele>111</ele>
        <time>2023-08-11T07:55:02.000Z</time>
      </trkpt>
      <trkpt lat="48.6995" lon="2.12854">
        <ele>110</ele>
        <time>2023-08-11T07:55:22.000Z</time>
      </trkpt>
      <trkpt lat="48.69942" lon="2.12886">
        <ele>110</ele>
        <time>2023-08-11T07:55:41.000Z</time>
      </trkpt>
      <trkpt lat="48.69929" lon="2.12919">
        <ele>110</ele>
        <time>2023-08-11T07:56:04.000Z</time>
      </trkpt>
      <trkpt lat="48.69909" lon="2.12901">
        <ele>110</ele>
        <time>2023-08-11T07:57:07.000Z</time>
      </trkpt>
      <trkpt lat="48.69887" lon="2.12902">
        <ele>109</ele>
        <time>2023-08-11T07:57:28.000Z</time>
      </trkpt>
      <trkpt lat="48.69861" lon="2.12909">
        <ele>109</ele>
        <time>2023-08-11T07:57:52.000Z</time>
      </trkpt>
      <trkpt lat="48.69844" lon="2.12934">
        <ele>110</ele>
        <time>2023-08-11T07:58:12.000Z</time>
      </trkpt>
      <trkpt lat="48.69826" lon="2.12958">
        <ele>110</ele>
        <time>2023-08-11T07:58:34.000Z</time>
      </trkpt>
      <trkpt lat="48.69813" lon="2.12989">
        <ele>112</ele>
        <time>2023-08-11T07:59:01.000Z</time>
      </trkpt>
      <trkpt lat="48.6981" lon="2.13029">
        <ele>112</ele>
        <time>2023-08-11T07:59:30.000Z</time>
      </trkpt>
      <trkpt lat="48.69822" lon="2.13062">
        <ele>111</ele>
        <time>2023-08-11T08:00:15.000Z</time>
      </trkpt>
      <trkpt lat="48.69824" lon="2.13099">
        <ele>111</ele>
        <time>2023-08-11T08:00:32.000Z</time>
      </trkpt>
      <trkpt lat="48.69825" lon="2.13136">
        <ele>111</ele>
        <time>2023-08-11T08:00:53.000Z</time>
      </trkpt>
      <trkpt lat="48.69838" lon="2.13169">
        <ele>109</ele>
        <time>2023-08-11T08:01:16.000Z</time>
      </trkpt>
      <trkpt lat="48.69841" lon="2.13206">
        <ele>109</ele>
        <time>2023-08-11T08:01:37.000Z</time>
      </trkpt>
      <trkpt lat="48.69853" lon="2.13238">
        <ele>111</ele>
        <time>2023-08-11T08:01:59.000Z</time>
      </trkpt>
      <trkpt lat="48.69856" lon="2.13274">
        <ele>109</ele>
        <time>2023-08-11T08:02:21.000Z</time>
      </trkpt>
      <trkpt lat="48.6986" lon="2.1331">
        <ele>111</ele>
        <time>2023-08-11T08:02:43.000Z</time>
      </trkpt>
      <trkpt lat="48.69855" lon="2.13347">
        <ele>110</ele>
        <time>2023-08-11T08:03:11.000Z</time>
      </trkpt>
      <trkpt lat="48.69872" lon="2.13373">
        <ele>112</ele>
        <time>2023-08-11T08:03:29.000Z</time>
      </trkpt>
      <trkpt lat="48.69889" lon="2.134">
        <ele>110</ele>
        <time>2023-08-11T08:03:53.000Z</time>
      </trkpt>
      <trkpt lat="48.69902" lon="2.13429">
        <ele>112</ele>
        <time>2023-08-11T08:04:44.000Z</time>
      </trkpt>
      <trkpt lat="48.69918" lon="2.13456">
        <ele>112</ele>
        <time>2023-08-11T08:05:18.000Z</time>
      </trkpt>
      <trkpt lat="48.69935" lon="2.13482">
        <ele>112</ele>
        <time>2023-08-11T08:06:11.000Z</time>
      </trkpt>
      <trkpt lat="48.69951" lon="2.13506">
        <ele>112</ele>
        <time>2023-08-11T08:06:56.000Z</time>
      </trkpt>
      <trkpt lat="48.69952" lon="2.13546">
        <ele>110</ele>
        <time>2023-08-11T08:10:39.000Z</time>
      </trkpt>
      <trkpt lat="48.6997" lon="2.13572">
        <ele>109</ele>
        <time>2023-08-11T08:10:57.000Z</time>
      </trkpt>
      <trkpt lat="48.69986" lon="2.13597">
        <ele>109</ele>
        <time>2023-08-11T08:11:23.000Z</time>
      </trkpt>
      <trkpt lat="48.70005" lon="2.13615">
        <ele>108</ele>
        <time>2023-08-11T08:12:00.000Z</time>
      </trkpt>
      <trkpt lat="48.70025" lon="2.136">
        <ele>108</ele>
        <time>2023-08-11T08:12:51.000Z</time>
      </trkpt>
      <trkpt lat="48.7004" lon="2.13627">
        <ele>107</ele>
        <time>2023-08-11T08:13:50.000Z</time>
      </trkpt>
      <trkpt lat="48.70055" lon="2.13595">
        <ele>108</ele>
        <time>2023-08-11T08:18:01.000Z</time>
      </trkpt>
      <trkpt lat="48.70073" lon="2.13575">
        <ele>108</ele>
        <time>2023-08-11T08:18:44.000Z</time>
      </trkpt>
      <trkpt lat="48.70056" lon="2.136">
        <ele>108</ele>
        <time>2023-08-11T08:19:17.000Z</time>
      </trkpt>
      <trkpt lat="48.70033" lon="2.13607">
        <ele>108</ele>
        <time>2023-08-11T08:19:37.000Z</time>
      </trkpt>
      <trkpt lat="48.7001" lon="2.13604">
        <ele>109</ele>
        <time>2023-08-11T08:20:05.000Z</time>
      </trkpt>
      <trkpt lat="48.69989" lon="2.13619">
        <ele>109</ele>
        <time>2023-08-11T08:20:22.000Z</time>
      </trkpt>
      <trkpt lat="48.69967" lon="2.13633">
        <ele>109</ele>
        <time>2023-08-11T08:20:44.000Z</time>
      </trkpt>
      <trkpt lat="48.69944" lon="2.1364">
        <ele>109</ele>
        <time>2023-08-11T08:21:06.000Z</time>
      </trkpt>
      <trkpt lat="48.69921" lon="2.13648">
        <ele>110</ele>
        <time>2023-08-11T08:21:40.000Z</time>
      </trkpt>
      <trkpt lat="48.69897" lon="2.13644">
        <ele>113</ele>
        <time>2023-08-11T08:22:09.000Z</time>
      </trkpt>
      <trkpt lat="48.69876" lon="2.13657">
        <ele>115</ele>
        <time>2023-08-11T08:22:33.000Z</time>
      </trkpt>
      <trkpt lat="48.69852" lon="2.13666">
        <ele>115</ele>
        <time>2023-08-11T08:22:54.000Z</time>
      </trkpt>
      <trkpt lat="48.69836" lon="2.13691">
        <ele>115</ele>
        <time>2023-08-11T08:23:13.000Z</time>
      </trkpt>
      <trkpt lat="48.6984" lon="2.13726">
        <ele>113</ele>
        <time>2023-08-11T08:23:41.000Z</time>
      </trkpt>
      <trkpt lat="48.69819" lon="2.13752">
        <ele>112</ele>
        <time>2023-08-11T08:24:06.000Z</time>
      </trkpt>
      <trkpt lat="48.69799" lon="2.13736">
        <ele>115</ele>
        <time>2023-08-11T08:25:12.000Z</time>
      </trkpt>
      <trkpt lat="48.69778" lon="2.13713">
        <ele>115</ele>
        <time>2023-08-11T08:25:36.000Z</time>
      </trkpt>
      <trkpt lat="48.6976" lon="2.13691">
        <ele>122</ele>
        <time>2023-08-11T08:26:43.000Z</time>
      </trkpt>
      <trkpt lat="48.69736" lon="2.13684">
        <ele>122</ele>
        <time>2023-08-11T08:26:57.000Z</time>
      </trkpt>
      <trkpt lat="48.69712" lon="2.1368">
        <ele>122</ele>
        <time>2023-08-11T08:27:16.000Z</time>
      </trkpt>
      <trkpt lat="48.69689" lon="2.13673">
        <ele>122</ele>
        <time>2023-08-11T08:27:44.000Z</time>
      </trkpt>
      <trkpt lat="48.69664" lon="2.13674">
        <ele>126</ele>
        <time>2023-08-11T08:28:10.000Z</time>
      </trkpt>
      <trkpt lat="48.69657" lon="2.13641">
        <ele>127</ele>
        <time>2023-08-11T08:28:46.000Z</time>
      </trkpt>
      <trkpt lat="48.69646" lon="2.13605">
        <ele>127</ele>
        <time>2023-08-11T08:29:07.000Z</time>
      </trkpt>
      <trkpt lat="48.69644" lon="2.13568">
        <ele>128</ele>
        <time>2023-08-11T08:29:26.000Z</time>
      </trkpt>
      <trkpt lat="48.69626" lon="2.13545">
        <ele>132</ele>
        <time>2023-08-11T08:30:04.000Z</time>
      </trkpt>
      <trkpt lat="48.69603" lon="2.13531">
        <ele>134</ele>
        <time>2023-08-11T08:30:33.000Z</time>
      </trkpt>
      <trkpt lat="48.69577" lon="2.13533">
        <ele>134</ele>
        <time>2023-08-11T08:30:51.000Z</time>
      </trkpt>
      <trkpt lat="48.69553" lon="2.13533">
        <ele>136</ele>
        <time>2023-08-11T08:31:14.000Z</time>
      </trkpt>
      <trkpt lat="48.69529" lon="2.13534">
        <ele>139</ele>
        <time>2023-08-11T08:31:44.000Z</time>
      </trkpt>
      <trkpt lat="48.69504" lon="2.13533">
        <ele>142</ele>
        <time>2023-08-11T08:32:06.000Z</time>
      </trkpt>
      <trkpt lat="48.69481" lon="2.13535">
        <ele>146</ele>
        <time>2023-08-11T08:32:28.000Z</time>
      </trkpt>
      <trkpt lat="48.69459" lon="2.13516">
        <ele>149</ele>
        <time>2023-08-11T08:32:57.000Z</time>
      </trkpt>
      <trkpt lat="48.69436" lon="2.13521">
        <ele>152</ele>
        <time>2023-08-11T08:34:34.000Z</time>
      </trkpt>
      <trkpt lat="48.69415" lon="2.13536">
        <ele>155</ele>
        <time>2023-08-11T08:35:03.000Z</time>
      </trkpt>
      <trkpt lat="48.69396" lon="2.13559">
        <ele>161</ele>
        <time>2023-08-11T08:35:37.000Z</time>
      </trkpt>
      <trkpt lat="48.69387" lon="2.13593">
        <ele>165</ele>
        <time>2023-08-11T08:36:03.000Z</time>
      </trkpt>
      <trkpt lat="48.69373" lon="2.13624">
        <ele>169</ele>
        <time>2023-08-11T08:36:29.000Z</time>
      </trkpt>
      <trkpt lat="48.69351" lon="2.13616">
        <ele>175</ele>
        <time>2023-08-11T08:37:19.000Z</time>
      </trkpt>
      <trkpt lat="48.69344" lon="2.13584">
        <ele>180</ele>
        <time>2023-08-11T08:37:45.000Z</time>
      </trkpt>
      <trkpt lat="48.69326" lon="2.13554">
        <ele>188</ele>
        <time>2023-08-11T08:38:36.000Z</time>
      </trkpt>
      <trkpt lat="48.6931" lon="2.1353">
        <ele>195</ele>
        <time>2023-08-11T08:39:13.000Z</time>
      </trkpt>
      <trkpt lat="48.69293" lon="2.13506">
        <ele>197</ele>
        <time>2023-08-11T08:41:13.000Z</time>
      </trkpt>
      <trkpt lat="48.69276" lon="2.13483">
        <ele>197</ele>
        <time>2023-08-11T08:43:16.000Z</time>
      </trkpt>
      <trkpt lat="48.6926" lon="2.13458">
        <ele>198</ele>
        <time>2023-08-11T08:43:32.000Z</time>
      </trkpt>
      <trkpt lat="48.69235" lon="2.13458">
        <ele>199</ele>
        <time>2023-08-11T08:43:51.000Z</time>
      </trkpt>
      <trkpt lat="48.69212" lon="2.13464">
        <ele>199</ele>
        <time>2023-08-11T08:44:19.000Z</time>
      </trkpt>
      <trkpt lat="48.69188" lon="2.13468">
        <ele>200</ele>
        <time>2023-08-11T08:44:39.000Z</time>
      </trkpt>
      <trkpt lat="48.69167" lon="2.13485">
        <ele>201</ele>
        <time>2023-08-11T08:44:58.000Z</time>
      </trkpt>
      <trkpt lat="48.69144" lon="2.13502">
        <ele>201</ele>
        <time>2023-08-11T08:45:21.000Z</time>
      </trkpt>
      <trkpt lat="48.69123" lon="2.13512">
        <ele>202</ele>
        <time>2023-08-11T08:45:46.000Z</time>
      </trkpt>
      <trkpt lat="48.69102" lon="2.13529">
        <ele>202</ele>
        <time>2023-08-11T08:46:02.000Z</time>
      </trkpt>
      <trkpt lat="48.69078" lon="2.13525">
        <ele>201</ele>
        <time>2023-08-11T08:46:24.000Z</time>
      </trkpt>
      <trkpt lat="48.69056" lon="2.13513">
        <ele>203</ele>
        <time>2023-08-11T08:46:44.000Z</time>
      </trkpt>
      <trkpt lat="48.69035" lon="2.13501">
        <ele>202</ele>
        <time>2023-08-11T08:47:04.000Z</time>
      </trkpt>
      <trkpt lat="48.69012" lon="2.13506">
        <ele>203</ele>
        <time>2023-08-11T08:47:25.000Z</time>
      </trkpt>
      <trkpt lat="48.68989" lon="2.13502">
        <ele>203</ele>
        <time>2023-08-11T08:47:50.000Z</time>
      </trkpt>
      <trkpt lat="48.68964" lon="2.13494">
        <ele>203</ele>
        <time>2023-08-11T08:48:12.000Z</time>
      </trkpt>
      <trkpt lat="48.68942" lon="2.13487">
        <ele>203</ele>
        <time>2023-08-11T08:48:30.000Z</time>
      </trkpt>
      <trkpt lat="48.68918" lon="2.13477">
        <ele>204</ele>
        <time>2023-08-11T08:48:52.000Z</time>
      </trkpt>
      <trkpt lat="48.68896" lon="2.13474">
        <ele>204</ele>
        <time>2023-08-11T08:49:14.000Z</time>
      </trkpt>
      <trkpt lat="48.68874" lon="2.13464">
        <ele>204</ele>
        <time>2023-08-11T08:49:33.000Z</time>
      </trkpt>
      <trkpt lat="48.68851" lon="2.13459">
        <ele>205</ele>
        <time>2023-08-11T08:49:52.000Z</time>
      </trkpt>
      <trkpt lat="48.68841" lon="2.13424">
        <ele>205</ele>
        <time>2023-08-11T08:50:14.000Z</time>
      </trkpt>
      <trkpt lat="48.68835" lon="2.13389">
        <ele>205</ele>
        <time>2023-08-11T08:50:36.000Z</time>
      </trkpt>
      <trkpt lat="48.68835" lon="2.13354">
        <ele>205</ele>
        <time>2023-08-11T08:50:58.000Z</time>
      </trkpt>
      <trkpt lat="48.68834" lon="2.13319">
        <ele>204</ele>
        <time>2023-08-11T08:51:23.000Z</time>
      </trkpt>
      <trkpt lat="48.68826" lon="2.13278">
        <ele>203</ele>
        <time>2023-08-11T08:51:41.000Z</time>
      </trkpt>
      <trkpt lat="48.68822" lon="2.13241">
        <ele>204</ele>
        <time>2023-08-11T08:52:09.000Z</time>
      </trkpt>
      <trkpt lat="48.68818" lon="2.13207">
        <ele>204</ele>
        <time>2023-08-11T08:52:27.000Z</time>
      </trkpt>
      <trkpt lat="48.68813" lon="2.13173">
        <ele>204</ele>
        <time>2023-08-11T08:52:46.000Z</time>
      </trkpt>
      <trkpt lat="48.68788" lon="2.13175">
        <ele>201</ele>
        <time>2023-08-11T08:53:09.000Z</time>
      </trkpt>
      <trkpt lat="48.68765" lon="2.1318">
        <ele>202</ele>
        <time>2023-08-11T08:53:25.000Z</time>
      </trkpt>
      <trkpt lat="48.6874" lon="2.13176">
        <ele>204</ele>
        <time>2023-08-11T08:53:47.000Z</time>
      </trkpt>
      <trkpt lat="48.68727" lon="2.13206">
        <ele>204</ele>
        <time>2023-08-11T08:54:26.000Z</time>
      </trkpt>
      <trkpt lat="48.68734" lon="2.1324">
        <ele>204</ele>
        <time>2023-08-11T08:54:49.000Z</time>
      </trkpt>
      <trkpt lat="48.68731" lon="2.13275">
        <ele>203</ele>
        <time>2023-08-11T08:55:07.000Z</time>
      </trkpt>
      <trkpt lat="48.68709" lon="2.13295">
        <ele>199</ele>
        <time>2023-08-11T08:55:31.000Z</time>
      </trkpt>
      <trkpt lat="48.68699" lon="2.13329">
        <ele>195</ele>
        <time>2023-08-11T08:55:59.000Z</time>
      </trkpt>
      <trkpt lat="48.68685" lon="2.13361">
        <ele>190</ele>
        <time>2023-08-11T08:56:36.000Z</time>
      </trkpt>
      <trkpt lat="48.68674" lon="2.13394">
        <ele>187</ele>
        <time>2023-08-11T08:56:55.000Z</time>
      </trkpt>
      <trkpt lat="48.68664" lon="2.13427">
        <ele>185</ele>
        <time>2023-08-11T08:57:15.000Z</time>
      </trkpt>
      <trkpt lat="48.68653" lon="2.1346">
        <ele>182</ele>
        <time>2023-08-11T08:57:51.000Z</time>
      </trkpt>
      <trkpt lat="48.6864" lon="2.13489">
        <ele>179</ele>
        <time>2023-08-11T08:58:07.000Z</time>
      </trkpt>
      <trkpt lat="48.68621" lon="2.13511">
        <ele>175</ele>
        <time>2023-08-11T08:58:26.000Z</time>
      </trkpt>
      <trkpt lat="48.68605" lon="2.13544">
        <ele>169</ele>
        <time>2023-08-11T08:59:16.000Z</time>
      </trkpt>
      <trkpt lat="48.68592" lon="2.13576">
        <ele>167</ele>
        <time>2023-08-11T08:59:35.000Z</time>
      </trkpt>
      <trkpt lat="48.68585" lon="2.13611">
        <ele>165</ele>
        <time>2023-08-11T09:00:07.000Z</time>
      </trkpt>
      <trkpt lat="48.68596" lon="2.13648">
        <ele>165</ele>
        <time>2023-08-11T09:00:30.000Z</time>
      </trkpt>
      <trkpt lat="48.68602" lon="2.13683">
        <ele>165</ele>
        <time>2023-08-11T09:00:52.000Z</time>
      </trkpt>
      <trkpt lat="48.68599" lon="2.13718">
        <ele>160</ele>
        <time>2023-08-11T09:01:20.000Z</time>
      </trkpt>
      <trkpt lat="48.68581" lon="2.13738">
        <ele>165</ele>
        <time>2023-08-11T09:01:40.000Z</time>
      </trkpt>
      <trkpt lat="48.68556" lon="2.1373">
        <ele>167</ele>
        <time>2023-08-11T09:01:56.000Z</time>
      </trkpt>
      <trkpt lat="48.68538" lon="2.13756">
        <ele>167</ele>
        <time>2023-08-11T09:02:41.000Z</time>
      </trkpt>
      <trkpt lat="48.68518" lon="2.13776">
        <ele>166</ele>
        <time>2023-08-11T09:03:21.000Z</time>
      </trkpt>
      <trkpt lat="48.68498" lon="2.13794">
        <ele>165</ele>
        <time>2023-08-11T09:03:38.000Z</time>
      </trkpt>
      <trkpt lat="48.68479" lon="2.13813">
        <ele>165</ele>
        <time>2023-08-11T09:03:57.000Z</time>
      </trkpt>
      <trkpt lat="48.68465" lon="2.13841">
        <ele>169</ele>
        <time>2023-08-11T09:04:22.000Z</time>
      </trkpt>
      <trkpt lat="48.6845" lon="2.13867">
        <ele>172</ele>
        <time>2023-08-11T09:04:48.000Z</time>
      </trkpt>
      <trkpt lat="48.68441" lon="2.13898">
        <ele>172</ele>
        <time>2023-08-11T09:05:15.000Z</time>
      </trkpt>
      <trkpt lat="48.68423" lon="2.13924">
        <ele>172</ele>
        <time>2023-08-11T09:05:25.000Z</time>
      </trkpt>
      <trkpt lat="48.68407" lon="2.13953">
        <ele>172</ele>
        <time>2023-08-11T09:05:40.000Z</time>
      </trkpt>
      <trkpt lat="48.68385" lon="2.13962">
        <ele>175</ele>
        <time>2023-08-11T09:06:16.000Z</time>
      </trkpt>
      <trkpt lat="48.68365" lon="2.13983">
        <ele>175</ele>
        <time>2023-08-11T09:06:44.000Z</time>
      </trkpt>
      <trkpt lat="48.68342" lon="2.13978">
        <ele>175</ele>
        <time>2023-08-11T09:07:11.000Z</time>
      </trkpt>
      <trkpt lat="48.68344" lon="2.13941">
        <ele>177</ele>
        <time>2023-08-11T09:07:46.000Z</time>
      </trkpt>
      <trkpt lat="48.68348" lon="2.13907">
        <ele>181</ele>
        <time>2023-08-11T09:08:13.000Z</time>
      </trkpt>
      <trkpt lat="48.68338" lon="2.13873">
        <ele>184</ele>
        <time>2023-08-11T09:08:29.000Z</time>
      </trkpt>
      <trkpt lat="48.68333" lon="2.13837">
        <ele>186</ele>
        <time>2023-08-11T09:08:57.000Z</time>
      </trkpt>
      <trkpt lat="48.68327" lon="2.13803">
        <ele>190</ele>
        <time>2023-08-11T09:09:25.000Z</time>
      </trkpt>
      <trkpt lat="48.68305" lon="2.13787">
        <ele>192</ele>
        <time>2023-08-11T09:09:49.000Z</time>
      </trkpt>
      <trkpt lat="48.68286" lon="2.13768">
        <ele>194</ele>
        <time>2023-08-11T09:10:08.000Z</time>
      </trkpt>
      <trkpt lat="48.68264" lon="2.13752">
        <ele>195</ele>
        <time>2023-08-11T09:10:33.000Z</time>
      </trkpt>
      <trkpt lat="48.68243" lon="2.13738">
        <ele>196</ele>
        <time>2023-08-11T09:10:55.000Z</time>
      </trkpt>
      <trkpt lat="48.6822" lon="2.13735">
        <ele>196</ele>
        <time>2023-08-11T09:11:16.000Z</time>
      </trkpt>
      <trkpt lat="48.68197" lon="2.13733">
        <ele>197</ele>
        <time>2023-08-11T09:11:37.000Z</time>
      </trkpt>
      <trkpt lat="48.68171" lon="2.13739">
        <ele>198</ele>
        <time>2023-08-11T09:12:02.000Z</time>
      </trkpt>
      <trkpt lat="48.68147" lon="2.13734">
        <ele>197</ele>
        <time>2023-08-11T09:12:23.000Z</time>
      </trkpt>
      <trkpt lat="48.68124" lon="2.13722">
        <ele>197</ele>
        <time>2023-08-11T09:12:46.000Z</time>
      </trkpt>
      <trkpt lat="48.68103" lon="2.1371">
        <ele>197</ele>
        <time>2023-08-11T09:13:06.000Z</time>
      </trkpt>
      <trkpt lat="48.68082" lon="2.13691">
        <ele>199</ele>
        <time>2023-08-11T09:13:28.000Z</time>
      </trkpt>
      <trkpt lat="48.68061" lon="2.13674">
        <ele>199</ele>
        <time>2023-08-11T09:13:52.000Z</time>
      </trkpt>
      <trkpt lat="48.68042" lon="2.13654">
        <ele>199</ele>
        <time>2023-08-11T09:14:14.000Z</time>
      </trkpt>
      <trkpt lat="48.6802" lon="2.13635">
        <ele>200</ele>
        <time>2023-08-11T09:14:34.000Z</time>
      </trkpt>
      <trkpt lat="48.67999" lon="2.13622">
        <ele>199</ele>
        <time>2023-08-11T09:14:55.000Z</time>
      </trkpt>
      <trkpt lat="48.67976" lon="2.13611">
        <ele>198</ele>
        <time>2023-08-11T09:15:17.000Z</time>
      </trkpt>
      <trkpt lat="48.67953" lon="2.13595">
        <ele>197</ele>
        <time>2023-08-11T09:15:39.000Z</time>
      </trkpt>
      <trkpt lat="48.67931" lon="2.13585">
        <ele>196</ele>
        <time>2023-08-11T09:16:01.000Z</time>
      </trkpt>
      <trkpt lat="48.67908" lon="2.13575">
        <ele>195</ele>
        <time>2023-08-11T09:16:50.000Z</time>
      </trkpt>
      <trkpt lat="48.67879" lon="2.13568">
        <ele>195</ele>
        <time>2023-08-11T09:17:09.000Z</time>
      </trkpt>
      <trkpt lat="48.67855" lon="2.13563">
        <ele>195</ele>
        <time>2023-08-11T09:17:23.000Z</time>
      </trkpt>
      <trkpt lat="48.67833" lon="2.13558">
        <ele>195</ele>
        <time>2023-08-11T09:23:46.000Z</time>
      </trkpt>
      <trkpt lat="48.67811" lon="2.1357">
        <ele>195</ele>
        <time>2023-08-11T09:28:16.000Z</time>
      </trkpt>
      <trkpt lat="48.6779" lon="2.13554">
        <ele>195</ele>
        <time>2023-08-11T09:28:38.000Z</time>
      </trkpt>
      <trkpt lat="48.67779" lon="2.13523">
        <ele>198</ele>
        <time>2023-08-11T09:29:03.000Z</time>
      </trkpt>
      <trkpt lat="48.67766" lon="2.13492">
        <ele>199</ele>
        <time>2023-08-11T09:29:32.000Z</time>
      </trkpt>
      <trkpt lat="48.67759" lon="2.13458">
        <ele>203</ele>
        <time>2023-08-11T09:29:57.000Z</time>
      </trkpt>
      <trkpt lat="48.67752" lon="2.13422">
        <ele>206</ele>
        <time>2023-08-11T09:30:22.000Z</time>
      </trkpt>
      <trkpt lat="48.67738" lon="2.13392">
        <ele>206</ele>
        <time>2023-08-11T09:30:45.000Z</time>
      </trkpt>
      <trkpt lat="48.67721" lon="2.13367">
        <ele>207</ele>
        <time>2023-08-11T09:31:04.000Z</time>
      </trkpt>
      <trkpt lat="48.67713" lon="2.13331">
        <ele>207</ele>
        <time>2023-08-11T09:31:43.000Z</time>
      </trkpt>
      <trkpt lat="48.67697" lon="2.13301">
        <ele>207</ele>
        <time>2023-08-11T09:32:02.000Z</time>
      </trkpt>
      <trkpt lat="48.67682" lon="2.13274">
        <ele>207</ele>
        <time>2023-08-11T09:32:27.000Z</time>
      </trkpt>
      <trkpt lat="48.67686" lon="2.1324">
        <ele>207</ele>
        <time>2023-08-11T09:32:55.000Z</time>
      </trkpt>
      <trkpt lat="48.67689" lon="2.13207">
        <ele>207</ele>
        <time>2023-08-11T09:33:16.000Z</time>
      </trkpt>
      <trkpt lat="48.67702" lon="2.13175">
        <ele>207</ele>
        <time>2023-08-11T09:33:38.000Z</time>
      </trkpt>
      <trkpt lat="48.67718" lon="2.13146">
        <ele>207</ele>
        <time>2023-08-11T09:34:07.000Z</time>
      </trkpt>
      <trkpt lat="48.67737" lon="2.13124">
        <ele>208</ele>
        <time>2023-08-11T09:34:29.000Z</time>
      </trkpt>
      <trkpt lat="48.67754" lon="2.13102">
        <ele>208</ele>
        <time>2023-08-11T09:34:51.000Z</time>
      </trkpt>
      <trkpt lat="48.67772" lon="2.13077">
        <ele>208</ele>
        <time>2023-08-11T09:35:51.000Z</time>
      </trkpt>
      <trkpt lat="48.67787" lon="2.13048">
        <ele>207</ele>
        <time>2023-08-11T09:36:07.000Z</time>
      </trkpt>
      <trkpt lat="48.67805" lon="2.13021">
        <ele>208</ele>
        <time>2023-08-11T09:36:29.000Z</time>
      </trkpt>
      <trkpt lat="48.67825" lon="2.13006">
        <ele>208</ele>
        <time>2023-08-11T09:36:51.000Z</time>
      </trkpt>
      <trkpt lat="48.67848" lon="2.12991">
        <ele>207</ele>
        <time>2023-08-11T09:37:13.000Z</time>
      </trkpt>
      <trkpt lat="48.67866" lon="2.1297">
        <ele>207</ele>
        <time>2023-08-11T09:37:33.000Z</time>
      </trkpt>
      <trkpt lat="48.67887" lon="2.12956">
        <ele>206</ele>
        <time>2023-08-11T09:37:55.000Z</time>
      </trkpt>
      <trkpt lat="48.67911" lon="2.12945">
        <ele>206</ele>
        <time>2023-08-11T09:38:20.000Z</time>
      </trkpt>
      <trkpt lat="48.67933" lon="2.12939">
        <ele>207</ele>
        <time>2023-08-11T09:38:42.000Z</time>
      </trkpt>
      <trkpt lat="48.67958" lon="2.12934">
        <ele>207</ele>
        <time>2023-08-11T09:39:03.000Z</time>
      </trkpt>
      <trkpt lat="48.6798" lon="2.12928">
        <ele>206</ele>
        <time>2023-08-11T09:39:25.000Z</time>
      </trkpt>
      <trkpt lat="48.68003" lon="2.12919">
        <ele>206</ele>
        <time>2023-08-11T09:39:48.000Z</time>
      </trkpt>
      <trkpt lat="48.68024" lon="2.12904">
        <ele>205</ele>
        <time>2023-08-11T09:40:17.000Z</time>
      </trkpt>
      <trkpt lat="48.68046" lon="2.12892">
        <ele>206</ele>
        <time>2023-08-11T09:40:36.000Z</time>
      </trkpt>
      <trkpt lat="48.68068" lon="2.12879">
        <ele>206</ele>
        <time>2023-08-11T09:40:58.000Z</time>
      </trkpt>
      <trkpt lat="48.6809" lon="2.12864">
        <ele>206</ele>
        <time>2023-08-11T09:41:18.000Z</time>
      </trkpt>
      <trkpt lat="48.68109" lon="2.12842">
        <ele>205</ele>
        <time>2023-08-11T09:41:40.000Z</time>
      </trkpt>
      <trkpt lat="48.6813" lon="2.12824">
        <ele>205</ele>
        <time>2023-08-11T09:42:04.000Z</time>
      </trkpt>
      <trkpt lat="48.6815" lon="2.128">
        <ele>206</ele>
        <time>2023-08-11T09:42:26.000Z</time>
      </trkpt>
      <trkpt lat="48.68169" lon="2.12781">
        <ele>207</ele>
        <time>2023-08-11T09:42:47.000Z</time>
      </trkpt>
      <trkpt lat="48.6819" lon="2.12759">
        <ele>206</ele>
        <time>2023-08-11T09:43:09.000Z</time>
      </trkpt>
      <trkpt lat="48.68209" lon="2.1274">
        <ele>207</ele>
        <time>2023-08-11T09:43:28.000Z</time>
      </trkpt>
      <trkpt lat="48.68231" lon="2.12722">
        <ele>206</ele>
        <time>2023-08-11T09:43:50.000Z</time>
      </trkpt>
      <trkpt lat="48.68251" lon="2.12699">
        <ele>207</ele>
        <time>2023-08-11T09:44:12.000Z</time>
      </trkpt>
      <trkpt lat="48.6827" lon="2.12679">
        <ele>207</ele>
        <time>2023-08-11T09:44:36.000Z</time>
      </trkpt>
      <trkpt lat="48.68291" lon="2.1266">
        <ele>206</ele>
        <time>2023-08-11T09:45:18.000Z</time>
      </trkpt>
      <trkpt lat="48.68315" lon="2.12656">
        <ele>206</ele>
        <time>2023-08-11T09:45:40.000Z</time>
      </trkpt>
      <trkpt lat="48.68338" lon="2.12669">
        <ele>206</ele>
        <time>2023-08-11T09:46:02.000Z</time>
      </trkpt>
      <trkpt lat="48.68362" lon="2.12676">
        <ele>206</ele>
        <time>2023-08-11T09:46:51.000Z</time>
      </trkpt>
      <trkpt lat="48.68387" lon="2.12681">
        <ele>206</ele>
        <time>2023-08-11T09:47:17.000Z</time>
      </trkpt>
      <trkpt lat="48.68394" lon="2.12646">
        <ele>207</ele>
        <time>2023-08-11T09:47:39.000Z</time>
      </trkpt>
      <trkpt lat="48.6838" lon="2.12618">
        <ele>207</ele>
        <time>2023-08-11T09:48:03.000Z</time>
      </trkpt>
      <trkpt lat="48.68383" lon="2.12584">
        <ele>206</ele>
        <time>2023-08-11T09:48:25.000Z</time>
      </trkpt>
      <trkpt lat="48.68393" lon="2.12553">
        <ele>206</ele>
        <time>2023-08-11T09:48:44.000Z</time>
      </trkpt>
      <trkpt lat="48.6841" lon="2.12529">
        <ele>205</ele>
        <time>2023-08-11T09:49:03.000Z</time>
      </trkpt>
      <trkpt lat="48.68428" lon="2.12506">
        <ele>204</ele>
        <time>2023-08-11T09:49:27.000Z</time>
      </trkpt>
      <trkpt lat="48.68442" lon="2.12476">
        <ele>203</ele>
        <time>2023-08-11T09:49:47.000Z</time>
      </trkpt>
      <trkpt lat="48.68455" lon="2.12442">
        <ele>203</ele>
        <time>2023-08-11T09:50:06.000Z</time>
      </trkpt>
      <trkpt lat="48.68464" lon="2.12409">
        <ele>203</ele>
        <time>2023-08-11T09:50:28.000Z</time>
      </trkpt>
      <trkpt lat="48.68471" lon="2.12371">
        <ele>203</ele>
        <time>2023-08-11T09:50:54.000Z</time>
      </trkpt>
      <trkpt lat="48.68479" lon="2.12337">
        <ele>203</ele>
        <time>2023-08-11T09:51:13.000Z</time>
      </trkpt>
      <trkpt lat="48.68485" lon="2.12302">
        <ele>203</ele>
        <time>2023-08-11T09:51:36.000Z</time>
      </trkpt>
      <trkpt lat="48.6849" lon="2.12266">
        <ele>203</ele>
        <time>2023-08-11T09:51:59.000Z</time>
      </trkpt>
      <trkpt lat="48.68499" lon="2.1223">
        <ele>203</ele>
        <time>2023-08-11T09:52:21.000Z</time>
      </trkpt>
      <trkpt lat="48.68508" lon="2.12198">
        <ele>203</ele>
        <time>2023-08-11T09:52:39.000Z</time>
      </trkpt>
      <trkpt lat="48.68514" lon="2.12165">
        <ele>203</ele>
        <time>2023-08-11T09:52:56.000Z</time>
      </trkpt>
      <trkpt lat="48.68502" lon="2.12132">
        <ele>203</ele>
        <time>2023-08-11T09:53:26.000Z</time>
      </trkpt>
      <trkpt lat="48.68509" lon="2.12094">
        <ele>203</ele>
        <time>2023-08-11T09:53:51.000Z</time>
      </trkpt>
      <trkpt lat="48.68485" lon="2.12081">
        <ele>206</ele>
        <time>2023-08-11T09:54:10.000Z</time>
      </trkpt>
      <trkpt lat="48.68481" lon="2.12044">
        <ele>203</ele>
        <time>2023-08-11T09:54:34.000Z</time>
      </trkpt>
      <trkpt lat="48.68489" lon="2.12012">
        <ele>203</ele>
        <time>2023-08-11T09:54:57.000Z</time>
      </trkpt>
      <trkpt lat="48.68489" lon="2.11972">
        <ele>204</ele>
        <time>2023-08-11T09:55:34.000Z</time>
      </trkpt>
      <trkpt lat="48.68509" lon="2.11953">
        <ele>203</ele>
        <time>2023-08-11T09:56:17.000Z</time>
      </trkpt>
      <trkpt lat="48.6853" lon="2.11965">
        <ele>203</ele>
        <time>2023-08-11T09:56:36.000Z</time>
      </trkpt>
      <trkpt lat="48.68549" lon="2.1199">
        <ele>203</ele>
        <time>2023-08-11T09:57:02.000Z</time>
      </trkpt>
      <trkpt lat="48.68569" lon="2.1201">
        <ele>206</ele>
        <time>2023-08-11T09:57:32.000Z</time>
      </trkpt>
      <trkpt lat="48.6859" lon="2.12026">
        <ele>204</ele>
        <time>2023-08-11T09:57:52.000Z</time>
      </trkpt>
      <trkpt lat="48.6861" lon="2.1205">
        <ele>203</ele>
        <time>2023-08-11T09:58:13.000Z</time>
      </trkpt>
      <trkpt lat="48.6863" lon="2.12067">
        <ele>205</ele>
        <time>2023-08-11T09:58:39.000Z</time>
      </trkpt>
      <trkpt lat="48.68655" lon="2.12069">
        <ele>203</ele>
        <time>2023-08-11T09:59:07.000Z</time>
      </trkpt>
      <trkpt lat="48.68671" lon="2.12095">
        <ele>201</ele>
        <time>2023-08-11T09:59:34.000Z</time>
      </trkpt>
      <trkpt lat="48.68646" lon="2.12107">
        <ele>203</ele>
        <time>2023-08-11T10:00:48.000Z</time>
      </trkpt>
      <trkpt lat="48.6867" lon="2.121">
        <ele>205</ele>
        <time>2023-08-11T10:01:30.000Z</time>
      </trkpt>
      <trkpt lat="48.68693" lon="2.12093">
        <ele>206</ele>
        <time>2023-08-11T10:01:51.000Z</time>
      </trkpt>
      <trkpt lat="48.68716" lon="2.12077">
        <ele>205</ele>
        <time>2023-08-11T10:02:13.000Z</time>
      </trkpt>
      <trkpt lat="48.68731" lon="2.12045">
        <ele>205</ele>
        <time>2023-08-11T10:02:33.000Z</time>
      </trkpt>
      <trkpt lat="48.68748" lon="2.12018">
        <ele>205</ele>
        <time>2023-08-11T10:02:52.000Z</time>
      </trkpt>
      <trkpt lat="48.68758" lon="2.11987">
        <ele>205</ele>
        <time>2023-08-11T10:03:13.000Z</time>
      </trkpt>
      <trkpt lat="48.68774" lon="2.1196">
        <ele>205</ele>
        <time>2023-08-11T10:03:38.000Z</time>
      </trkpt>
      <trkpt lat="48.68795" lon="2.11938">
        <ele>205</ele>
        <time>2023-08-11T10:04:00.000Z</time>
      </trkpt>
      <trkpt lat="48.68812" lon="2.11912">
        <ele>205</ele>
        <time>2023-08-11T10:04:21.000Z</time>
      </trkpt>
      <trkpt lat="48.68828" lon="2.11887">
        <ele>205</ele>
        <time>2023-08-11T10:04:41.000Z</time>
      </trkpt>
      <trkpt lat="48.68836" lon="2.11852">
        <ele>205</ele>
        <time>2023-08-11T10:05:03.000Z</time>
      </trkpt>
      <trkpt lat="48.68849" lon="2.11818">
        <ele>205</ele>
        <time>2023-08-11T10:05:21.000Z</time>
      </trkpt>
      <trkpt lat="48.68844" lon="2.11778">
        <ele>205</ele>
        <time>2023-08-11T10:05:38.000Z</time>
      </trkpt>
      <trkpt lat="48.68837" lon="2.11741">
        <ele>204</ele>
        <time>2023-08-11T10:05:57.000Z</time>
      </trkpt>
      <trkpt lat="48.68834" lon="2.11707">
        <ele>205</ele>
        <time>2023-08-11T10:06:19.000Z</time>
      </trkpt>
      <trkpt lat="48.6882" lon="2.11677">
        <ele>205</ele>
        <time>2023-08-11T10:07:33.000Z</time>
      </trkpt>
      <trkpt lat="48.68815" lon="2.11638">
        <ele>204</ele>
        <time>2023-08-11T10:07:57.000Z</time>
      </trkpt>
      <trkpt lat="48.68824" lon="2.11604">
        <ele>205</ele>
        <time>2023-08-11T10:08:20.000Z</time>
      </trkpt>
      <trkpt lat="48.68843" lon="2.11583">
        <ele>205</ele>
        <time>2023-08-11T10:08:46.000Z</time>
      </trkpt>
      <trkpt lat="48.68864" lon="2.11564">
        <ele>205</ele>
        <time>2023-08-11T10:09:03.000Z</time>
      </trkpt>
      <trkpt lat="48.68878" lon="2.11534">
        <ele>205</ele>
        <time>2023-08-11T10:10:07.000Z</time>
      </trkpt>
      <trkpt lat="48.68894" lon="2.1151">
        <ele>205</ele>
        <time>2023-08-11T10:10:31.000Z</time>
      </trkpt>
      <trkpt lat="48.68906" lon="2.1148">
        <ele>205</ele>
        <time>2023-08-11T10:11:36.000Z</time>
      </trkpt>
      <trkpt lat="48.68899" lon="2.11447">
        <ele>204</ele>
        <time>2023-08-11T10:12:19.000Z</time>
      </trkpt>
      <trkpt lat="48.68897" lon="2.11413">
        <ele>205</ele>
        <time>2023-08-11T10:12:37.000Z</time>
      </trkpt>
      <trkpt lat="48.68921" lon="2.11411">
        <ele>203</ele>
        <time>2023-08-11T10:13:22.000Z</time>
      </trkpt>
      <trkpt lat="48.68943" lon="2.11402">
        <ele>203</ele>
        <time>2023-08-11T10:13:41.000Z</time>
      </trkpt>
      <trkpt lat="48.6894" lon="2.11363">
        <ele>202</ele>
        <time>2023-08-11T10:14:02.000Z</time>
      </trkpt>
      <trkpt lat="48.68937" lon="2.11329">
        <ele>201</ele>
        <time>2023-08-11T10:15:07.000Z</time>
      </trkpt>
      <trkpt lat="48.68939" lon="2.11292">
        <ele>202</ele>
        <time>2023-08-11T10:15:26.000Z</time>
      </trkpt>
      <trkpt lat="48.68939" lon="2.11257">
        <ele>202</ele>
        <time>2023-08-11T10:15:47.000Z</time>
      </trkpt>
      <trkpt lat="48.68951" lon="2.11225">
        <ele>201</ele>
        <time>2023-08-11T10:16:09.000Z</time>
      </trkpt>
      <trkpt lat="48.68959" lon="2.11191">
        <ele>202</ele>
        <time>2023-08-11T10:16:37.000Z</time>
      </trkpt>
      <trkpt lat="48.68967" lon="2.11158">
        <ele>202</ele>
        <time>2023-08-11T10:17:11.000Z</time>
      </trkpt>
      <trkpt lat="48.68978" lon="2.11124">
        <ele>202</ele>
        <time>2023-08-11T10:17:29.000Z</time>
      </trkpt>
      <trkpt lat="48.68973" lon="2.11088">
        <ele>202</ele>
        <time>2023-08-11T10:17:54.000Z</time>
      </trkpt>
      <trkpt lat="48.6899" lon="2.11058">
        <ele>202</ele>
        <time>2023-08-11T10:19:04.000Z</time>
      </trkpt>
      <trkpt lat="48.69003" lon="2.11028">
        <ele>203</ele>
        <time>2023-08-11T10:19:20.000Z</time>
      </trkpt>
      <trkpt lat="48.69021" lon="2.11003">
        <ele>203</ele>
        <time>2023-08-11T10:19:43.000Z</time>
      </trkpt>
      <trkpt lat="48.69012" lon="2.10971">
        <ele>203</ele>
        <time>2023-08-11T10:20:17.000Z</time>
      </trkpt>
      <trkpt lat="48.68996" lon="2.10946">
        <ele>203</ele>
        <time>2023-08-11T10:20:36.000Z</time>
      </trkpt>
      <trkpt lat="48.6899" lon="2.10911">
        <ele>202</ele>
        <time>2023-08-11T10:20:50.000Z</time>
      </trkpt>
      <trkpt lat="48.68998" lon="2.10875">
        <ele>202</ele>
        <time>2023-08-11T10:21:12.000Z</time>
      </trkpt>
      <trkpt lat="48.68997" lon="2.10837">
        <ele>202</ele>
        <time>2023-08-11T10:21:37.000Z</time>
      </trkpt>
      <trkpt lat="48.69005" lon="2.10803">
        <ele>202</ele>
        <time>2023-08-11T10:22:02.000Z</time>
      </trkpt>
      <trkpt lat="48.69019" lon="2.10774">
        <ele>202</ele>
        <time>2023-08-11T10:22:21.000Z</time>
      </trkpt>
      <trkpt lat="48.69021" lon="2.10737">
        <ele>202</ele>
        <time>2023-08-11T10:22:40.000Z</time>
      </trkpt>
      <trkpt lat="48.69017" lon="2.10702">
        <ele>202</ele>
        <time>2023-08-11T10:22:56.000Z</time>
      </trkpt>
      <trkpt lat="48.69016" lon="2.10665">
        <ele>202</ele>
        <time>2023-08-11T10:23:18.000Z</time>
      </trkpt>
      <trkpt lat="48.69015" lon="2.1063">
        <ele>202</ele>
        <time>2023-08-11T10:23:37.000Z</time>
      </trkpt>
      <trkpt lat="48.69015" lon="2.10593">
        <ele>202</ele>
        <time>2023-08-11T10:23:59.000Z</time>
      </trkpt>
      <trkpt lat="48.69009" lon="2.10556">
        <ele>201</ele>
        <time>2023-08-11T10:24:26.000Z</time>
      </trkpt>
      <trkpt lat="48.6901" lon="2.10521">
        <ele>202</ele>
        <time>2023-08-11T10:24:44.000Z</time>
      </trkpt>
      <trkpt lat="48.69004" lon="2.10485">
        <ele>202</ele>
        <time>2023-08-11T10:25:07.000Z</time>
      </trkpt>
      <trkpt lat="48.68989" lon="2.10455">
        <ele>203</ele>
        <time>2023-08-11T10:25:27.000Z</time>
      </trkpt>
      <trkpt lat="48.68967" lon="2.10471">
        <ele>202</ele>
        <time>2023-08-11T10:26:17.000Z</time>
      </trkpt>
      <trkpt lat="48.68943" lon="2.10468">
        <ele>202</ele>
        <time>2023-08-11T10:26:33.000Z</time>
      </trkpt>
      <trkpt lat="48.68917" lon="2.10464">
        <ele>204</ele>
        <time>2023-08-11T10:26:55.000Z</time>
      </trkpt>
      <trkpt lat="48.68895" lon="2.10458">
        <ele>204</ele>
        <time>2023-08-11T10:27:30.000Z</time>
      </trkpt>
      <trkpt lat="48.68872" lon="2.10462">
        <ele>206</ele>
        <time>2023-08-11T10:27:49.000Z</time>
      </trkpt>
      <trkpt lat="48.6885" lon="2.10449">
        <ele>204</ele>
        <time>2023-08-11T10:28:15.000Z</time>
      </trkpt>
      <trkpt lat="48.68826" lon="2.10436">
        <ele>206</ele>
        <time>2023-08-11T10:28:35.000Z</time>
      </trkpt>
      <trkpt lat="48.68802" lon="2.10425">
        <ele>206</ele>
        <time>2023-08-11T10:28:58.000Z</time>
      </trkpt>
      <trkpt lat="48.68778" lon="2.10412">
        <ele>206</ele>
        <time>2023-08-11T10:29:19.000Z</time>
      </trkpt>
      <trkpt lat="48.68763" lon="2.10384">
        <ele>206</ele>
        <time>2023-08-11T10:29:45.000Z</time>
      </trkpt>
      <trkpt lat="48.68769" lon="2.1035">
        <ele>206</ele>
        <time>2023-08-11T10:30:07.000Z</time>
      </trkpt>
      <trkpt lat="48.68773" lon="2.10317">
        <ele>205</ele>
        <time>2023-08-11T10:30:26.000Z</time>
      </trkpt>
      <trkpt lat="48.6878" lon="2.10279">
        <ele>205</ele>
        <time>2023-08-11T10:30:58.000Z</time>
      </trkpt>
      <trkpt lat="48.68785" lon="2.10242">
        <ele>205</ele>
        <time>2023-08-11T10:31:18.000Z</time>
      </trkpt>
      <trkpt lat="48.6879" lon="2.10206">
        <ele>205</ele>
        <time>2023-08-11T10:31:38.000Z</time>
      </trkpt>
      <trkpt lat="48.68798" lon="2.1017">
        <ele>205</ele>
        <time>2023-08-11T10:32:14.000Z</time>
      </trkpt>
      <trkpt lat="48.68806" lon="2.10134">
        <ele>205</ele>
        <time>2023-08-11T10:32:36.000Z</time>
      </trkpt>
      <trkpt lat="48.68817" lon="2.10104">
        <ele>205</ele>
        <time>2023-08-11T10:32:56.000Z</time>
      </trkpt>
      <trkpt lat="48.68826" lon="2.1007">
        <ele>205</ele>
        <time>2023-08-11T10:33:18.000Z</time>
      </trkpt>
      <trkpt lat="48.68833" lon="2.10037">
        <ele>205</ele>
        <time>2023-08-11T10:33:41.000Z</time>
      </trkpt>
      <trkpt lat="48.68849" lon="2.1001">
        <ele>205</ele>
        <time>2023-08-11T10:34:05.000Z</time>
      </trkpt>
      <trkpt lat="48.68864" lon="2.09983">
        <ele>205</ele>
        <time>2023-08-11T10:34:27.000Z</time>
      </trkpt>
      <trkpt lat="48.68882" lon="2.09961">
        <ele>205</ele>
        <time>2023-08-11T10:35:00.000Z</time>
      </trkpt>
      <trkpt lat="48.68902" lon="2.09938">
        <ele>205</ele>
        <time>2023-08-11T10:35:23.000Z</time>
      </trkpt>
      <trkpt lat="48.68914" lon="2.09907">
        <ele>205</ele>
        <time>2023-08-11T10:35:51.000Z</time>
      </trkpt>
      <trkpt lat="48.68928" lon="2.09879">
        <ele>205</ele>
        <time>2023-08-11T10:36:09.000Z</time>
      </trkpt>
      <trkpt lat="48.68943" lon="2.09849">
        <ele>205</ele>
        <time>2023-08-11T10:36:29.000Z</time>
      </trkpt>
      <trkpt lat="48.68956" lon="2.09817">
        <ele>205</ele>
        <time>2023-08-11T10:36:57.000Z</time>
      </trkpt>
      <trkpt lat="48.6897" lon="2.09786">
        <ele>205</ele>
        <time>2023-08-11T10:37:18.000Z</time>
      </trkpt>
      <trkpt lat="48.68982" lon="2.09756">
        <ele>205</ele>
        <time>2023-08-11T10:37:37.000Z</time>
      </trkpt>
      <trkpt lat="48.68999" lon="2.09733">
        <ele>205</ele>
        <time>2023-08-11T10:38:04.000Z</time>
      </trkpt>
      <trkpt lat="48.69024" lon="2.09741">
        <ele>204</ele>
        <time>2023-08-11T10:39:28.000Z</time>
      </trkpt>
      <trkpt lat="48.69048" lon="2.09749">
        <ele>205</ele>
        <time>2023-08-11T10:39:48.000Z</time>
      </trkpt>
      <trkpt lat="48.69071" lon="2.09763">
        <ele>205</ele>
        <time>2023-08-11T10:40:09.000Z</time>
      </trkpt>
      <trkpt lat="48.69094" lon="2.09771">
        <ele>205</ele>
        <time>2023-08-11T10:40:30.000Z</time>
      </trkpt>
      <trkpt lat="48.69117" lon="2.0978">
        <ele>205</ele>
        <time>2023-08-11T10:40:54.000Z</time>
      </trkpt>
      <trkpt lat="48.69141" lon="2.09786">
        <ele>206</ele>
        <time>2023-08-11T10:41:14.000Z</time>
      </trkpt>
      <trkpt lat="48.69163" lon="2.09796">
        <ele>206</ele>
        <time>2023-08-11T10:41:34.000Z</time>
      </trkpt>
      <trkpt lat="48.69187" lon="2.09805">
        <ele>206</ele>
        <time>2023-08-11T10:41:58.000Z</time>
      </trkpt>
      <trkpt lat="48.69211" lon="2.09809">
        <ele>206</ele>
        <time>2023-08-11T10:42:19.000Z</time>
      </trkpt>
      <trkpt lat="48.69235" lon="2.09822">
        <ele>207</ele>
        <time>2023-08-11T10:42:59.000Z</time>
      </trkpt>
      <trkpt lat="48.69259" lon="2.09831">
        <ele>207</ele>
        <time>2023-08-11T10:43:20.000Z</time>
      </trkpt>
      <trkpt lat="48.69285" lon="2.09834">
        <ele>208</ele>
        <time>2023-08-11T10:44:14.000Z</time>
      </trkpt>
      <trkpt lat="48.69307" lon="2.09847">
        <ele>209</ele>
        <time>2023-08-11T10:44:34.000Z</time>
      </trkpt>
      <trkpt lat="48.69331" lon="2.0986">
        <ele>208</ele>
        <time>2023-08-11T10:44:55.000Z</time>
      </trkpt>
      <trkpt lat="48.69354" lon="2.09872">
        <ele>208</ele>
        <time>2023-08-11T10:45:16.000Z</time>
      </trkpt>
      <trkpt lat="48.69377" lon="2.09882">
        <ele>209</ele>
        <time>2023-08-11T10:46:00.000Z</time>
      </trkpt>
      <trkpt lat="48.69398" lon="2.09864">
        <ele>209</ele>
        <time>2023-08-11T10:46:24.000Z</time>
      </trkpt>
      <trkpt lat="48.69425" lon="2.09865">
        <ele>210</ele>
        <time>2023-08-11T10:46:42.000Z</time>
      </trkpt>
      <trkpt lat="48.69448" lon="2.09863">
        <ele>210</ele>
        <time>2023-08-11T10:46:59.000Z</time>
      </trkpt>
      <trkpt lat="48.6947" lon="2.09869">
        <ele>210</ele>
        <time>2023-08-11T10:47:18.000Z</time>
      </trkpt>
      <trkpt lat="48.69494" lon="2.09868">
        <ele>210</ele>
        <time>2023-08-11T10:47:43.000Z</time>
      </trkpt>
      <trkpt lat="48.69518" lon="2.09863">
        <ele>208</ele>
        <time>2023-08-11T10:48:30.000Z</time>
      </trkpt>
      <trkpt lat="48.69543" lon="2.09865">
        <ele>205</ele>
        <time>2023-08-11T10:48:52.000Z</time>
      </trkpt>
      <trkpt lat="48.69565" lon="2.09857">
        <ele>200</ele>
        <time>2023-08-11T10:49:20.000Z</time>
      </trkpt>
      <trkpt lat="48.69592" lon="2.09859">
        <ele>196</ele>
        <time>2023-08-11T10:49:40.000Z</time>
      </trkpt>
      <trkpt lat="48.69617" lon="2.09855">
        <ele>188</ele>
        <time>2023-08-11T10:49:59.000Z</time>
      </trkpt>
      <trkpt lat="48.69638" lon="2.09839">
        <ele>185</ele>
        <time>2023-08-11T10:50:29.000Z</time>
      </trkpt>
      <trkpt lat="48.69658" lon="2.09816">
        <ele>182</ele>
        <time>2023-08-11T10:50:52.000Z</time>
      </trkpt>
      <trkpt lat="48.69677" lon="2.09791">
        <ele>176</ele>
        <time>2023-08-11T10:51:27.000Z</time>
      </trkpt>
      <trkpt lat="48.69697" lon="2.09771">
        <ele>173</ele>
        <time>2023-08-11T10:51:50.000Z</time>
      </trkpt>
      <trkpt lat="48.69714" lon="2.09745">
        <ele>166</ele>
        <time>2023-08-11T10:52:39.000Z</time>
      </trkpt>
      <trkpt lat="48.69727" lon="2.09718">
        <ele>161</ele>
        <time>2023-08-11T10:53:07.000Z</time>
      </trkpt>
      <trkpt lat="48.69746" lon="2.09695">
        <ele>157</ele>
        <time>2023-08-11T10:53:41.000Z</time>
      </trkpt>
      <trkpt lat="48.69769" lon="2.097">
        <ele>153</ele>
        <time>2023-08-11T10:54:28.000Z</time>
      </trkpt>
      <trkpt lat="48.6979" lon="2.09713">
        <ele>151</ele>
        <time>2023-08-11T10:55:03.000Z</time>
      </trkpt>
      <trkpt lat="48.69809" lon="2.09732">
        <ele>151</ele>
        <time>2023-08-11T10:55:21.000Z</time>
      </trkpt>
      <trkpt lat="48.69832" lon="2.0975">
        <ele>148</ele>
        <time>2023-08-11T10:55:42.000Z</time>
      </trkpt>
      <trkpt lat="48.69853" lon="2.09763">
        <ele>145</ele>
        <time>2023-08-11T10:56:01.000Z</time>
      </trkpt>
      <trkpt lat="48.69877" lon="2.09772">
        <ele>143</ele>
        <time>2023-08-11T10:56:24.000Z</time>
      </trkpt>
      <trkpt lat="48.69899" lon="2.09788">
        <ele>139</ele>
        <time>2023-08-11T10:56:47.000Z</time>
      </trkpt>
      <trkpt lat="48.69909" lon="2.09819">
        <ele>132</ele>
        <time>2023-08-11T10:57:17.000Z</time>
      </trkpt>
      <trkpt lat="48.69922" lon="2.09848">
        <ele>134</ele>
        <time>2023-08-11T10:57:36.000Z</time>
      </trkpt>
      <trkpt lat="48.69936" lon="2.09875">
        <ele>135</ele>
        <time>2023-08-11T10:57:55.000Z</time>
      </trkpt>
      <trkpt lat="48.69957" lon="2.09893">
        <ele>133</ele>
        <time>2023-08-11T10:58:17.000Z</time>
      </trkpt>
      <trkpt lat="48.69977" lon="2.09913">
        <ele>129</ele>
        <time>2023-08-11T10:59:06.000Z</time>
      </trkpt>
      <trkpt lat="48.70001" lon="2.0992">
        <ele>129</ele>
        <time>2023-08-11T10:59:28.000Z</time>
      </trkpt>
      <trkpt lat="48.70028" lon="2.09924">
        <ele>127</ele>
        <time>2023-08-11T10:59:47.000Z</time>
      </trkpt>
      <trkpt lat="48.70051" lon="2.09929">
        <ele>126</ele>
        <time>2023-08-11T11:00:04.000Z</time>
      </trkpt>
      <trkpt lat="48.70073" lon="2.09935">
        <ele>124</ele>
        <time>2023-08-11T11:00:23.000Z</time>
      </trkpt>
      <trkpt lat="48.70096" lon="2.09944">
        <ele>120</ele>
        <time>2023-08-11T11:01:21.000Z</time>
      </trkpt>
      <trkpt lat="48.70116" lon="2.09961">
        <ele>122</ele>
        <time>2023-08-11T11:02:04.000Z</time>
      </trkpt>
      <trkpt lat="48.70137" lon="2.09973">
        <ele>120</ele>
        <time>2023-08-11T11:02:23.000Z</time>
      </trkpt>
      <trkpt lat="48.70145" lon="2.1001">
        <ele>118</ele>
        <time>2023-08-11T11:02:47.000Z</time>
      </trkpt>
      <trkpt lat="48.70169" lon="2.10023">
        <ele>117</ele>
        <time>2023-08-11T11:03:15.000Z</time>
      </trkpt>
      <trkpt lat="48.70187" lon="2.10048">
        <ele>117</ele>
        <time>2023-08-11T11:03:31.000Z</time>
      </trkpt>
      <trkpt lat="48.70197" lon="2.1008">
        <ele>117</ele>
        <time>2023-08-11T11:03:51.000Z</time>
      </trkpt>
      <trkpt lat="48.70204" lon="2.10116">
        <ele>117</ele>
        <time>2023-08-11T11:04:22.000Z</time>
      </trkpt>
      <trkpt lat="48.70227" lon="2.10132">
        <ele>117</ele>
        <time>2023-08-11T11:04:47.000Z</time>
      </trkpt>
      <trkpt lat="48.70218" lon="2.10168">
        <ele>115</ele>
        <time>2023-08-11T11:05:15.000Z</time>
      </trkpt>
      <trkpt lat="48.70226" lon="2.10203">
        <ele>114</ele>
        <time>2023-08-11T11:05:37.000Z</time>
      </trkpt>
      <trkpt lat="48.7024" lon="2.10234">
        <ele>114</ele>
        <time>2023-08-11T11:06:02.000Z</time>
      </trkpt>
      <trkpt lat="48.70232" lon="2.1027">
        <ele>113</ele>
        <time>2023-08-11T11:06:25.000Z</time>
      </trkpt>
      <trkpt lat="48.70216" lon="2.10296">
        <ele>113</ele>
        <time>2023-08-11T11:06:47.000Z</time>
      </trkpt>
      <trkpt lat="48.70207" lon="2.10328">
        <ele>114</ele>
        <time>2023-08-11T11:07:04.000Z</time>
      </trkpt>
      <trkpt lat="48.70196" lon="2.10359">
        <ele>114</ele>
        <time>2023-08-11T11:07:23.000Z</time>
      </trkpt>
      <trkpt lat="48.70194" lon="2.10395">
        <ele>114</ele>
        <time>2023-08-11T11:07:45.000Z</time>
      </trkpt>
      <trkpt lat="48.70194" lon="2.10431">
        <ele>114</ele>
        <time>2023-08-11T11:08:10.000Z</time>
      </trkpt>
      <trkpt lat="48.70193" lon="2.10469">
        <ele>113</ele>
        <time>2023-08-11T11:08:32.000Z</time>
      </trkpt>
    </trkseg>
  </trk>
</gpx>